Terminal Aerodrome Forecast
Issued by NWS Springfield, MO

Home | Current Version | Previous Version | Text Only | Print | Product List | Glossary On
Versions: 1 2 3 4 5 6 7 8 9 10 11 12 13 14 15 16 17 18 19 20 21 22 23 24 25 26
000
FTUS43 KSGF 231000 AAB
TAFSGF
TAF AMD
KSGF 231026Z 2310/2406 15014KT P6SM -RA OVC012 WS020/19045KT
      TEMPO 2310/2314 3SM SHRA BR BKN008 OVC015
     FM231600 19011KT 5SM -DZ OVC012
     FM240000 22011KT 5SM -RA BR VCTS OVC015CB
     FM240300 29020G31KT 5SM -RA BR OVC010=

USA.gov is the U.S. government's official web portal to all federal, state and local government web resources and services.